Happy Days — WDB6140 — position and weather

sailwx.info

Track history (hours):
 
Tides and Currents Weather Stations Pressure Air Temp Water Temp Dewpoint Dewpoint Depression Visibility Wind Speed Wind Dir Waves Ship Positions

Happy Days

Owner: nazar, joe d, san francisco, CA. More information available from US FCC via Universal Licensing System and Coast Guard Vessel Documentation Center.

Last reported at 2017-Oct-23 01:40 UTC. Time now 2017-Oct-23 05:58 UTC.
Position N 37°49' W 122°25'.

Length 13 m.

Type: Fishing. MMSI: 366918840.

Date/timePositionNaut miles runAvg speedWind from/ knotsBaromVisibWave heightAir tempDewpointWater temp
2017-Oct-23 01:40N 37°49' W 122°25'0 0.0
2017-Oct-23 01:25N 37°49' W 122°25'0 0.3
2017-Oct-23 00:59N 37°49' W 122°24'0 1.0
2017-Oct-23 00:30N 37°48' W 122°25'1 2.8
2017-Oct-23 00:00N 37°50' W 122°26'2 3.6
2017-Oct-22 23:30N 37°49' W 122°28'2 2.9
2017-Oct-22 22:44N 37°48' W 122°25'0 0.0
2017-Oct-22 22:28N 37°48' W 122°25'2 4.0
2017-Oct-22 21:59N 37°49' W 122°27'2 1.3
2017-Oct-22 20:28N 37°48' W 122°25'3 5.4
2017-Oct-22 20:00N 37°49' W 122°28'3 2.9
2017-Oct-22 19:08N 37°48' W 122°25'0 0.0
2017-Oct-22 18:38N 37°48' W 122°25'0 0.0
2017-Oct-22 18:29N 37°48' W 122°25'0 0.0
2017-Oct-22 17:31N 37°48' W 122°25'0 0.6
2017-Oct-22 17:30N 37°49' W 122°25'0 0.7
2017-Oct-22 16:58N 37°49' W 122°25'0 0.0
2017-Oct-21 23:25N 37°49' W 122°25'0 0.7
2017-Oct-21 23:00N 37°49' W 122°25'0 0.6
2017-Oct-21 22:29N 37°49' W 122°25'0 0.3
2017-Oct-21 22:00N 37°49' W 122°24'510.2
2017-Oct-21 21:30N 37°48' W 122°31'3 2.6
2017-Oct-21 20:15N 37°47' W 122°35'2 8.3
2017-Oct-21 20:00N 37°48' W 122°32'4 8.4
2017-Oct-21 19:30N 37°49' W 122°27'2 4.0
2017-Oct-21 18:57N 37°49' W 122°25'2 4.0
2017-Oct-21 18:30N 37°49' W 122°27'6 3.3
2017-Oct-21 16:44N 37°47' W 122°34'315.1
2017-Oct-21 16:30N 37°49' W 122°30'4 8.4
2017-Oct-21 16:00N 37°49' W 122°25'0 0.0
2017-Oct-19 23:08N 37°49' W 122°25'0 0.0
2017-Oct-19 22:59N 37°49' W 122°25'0 0.0
2017-Oct-19 22:26N 37°49' W 122°25'0 0.0
2017-Oct-19 21:56N 37°49' W 122°25'0 0.0
2017-Oct-19 21:26N 37°49' W 122°25'0 0.0
2017-Oct-19 20:50N 37°49' W 122°25'0 0.0
2017-Oct-19 20:26N 37°49' W 122°25'0 0.0
2017-Oct-19 19:52N 37°49' W 122°25'3 7.1
2017-Oct-19 19:30N 37°49' W 122°28'3 1.0
2017-Oct-19 16:36N 37°49' W 122°31'111.2
2017-Oct-19 16:30N 37°49' W 122°30'1 2.9
2017-Oct-19 15:59N 37°49' W 122°28'1 2.6
2017-Oct-19 15:30N 37°49' W 122°26'2 0.1
2017-Oct-18 20:09N 37°49' W 122°25'0 0.0
2017-Oct-18 20:00N 37°49' W 122°25'5 1.2
2017-Oct-18 15:49N 37°49' W 122°31'3 9.2
2017-Oct-18 15:30N 37°49' W 122°27'2 0.1
2017-Oct-17 21:16N 37°49' W 122°24'0 0.1
2017-Oct-17 17:55N 37°48' W 122°25'0 0.3
2017-Oct-17 17:28N 37°49' W 122°25'1 1.1
2017-Oct-17 17:00N 37°49' W 122°25'  
2017-Oct-14 22:55N 37°49' W 122°24'511.5
2017-Oct-14 22:30N 37°49' W 122°30'6 3.7
2017-Oct-14 20:59N 37°48' W 122°38'5 9.6
2017-Oct-14 20:25N 37°49' W 122°31'512.1
2017-Oct-14 20:00N 37°49' W 122°24'4 7.8
2017-Oct-14 19:30N 37°49' W 122°29'5 1.7
2017-Oct-14 16:48N 37°47' W 122°35'415.0
2017-Oct-14 16:30N 37°49' W 122°30'4 0.2
2017-Oct-13 21:47N 37°49' W 122°25'0 0.0
2017-Oct-13 21:29N 37°49' W 122°25'0 0.0
2017-Oct-13 20:59N 37°49' W 122°25'0 0.0
2017-Oct-13 20:29N 37°49' W 122°25'0 0.0
2017-Oct-13 20:00N 37°49' W 122°25'3 6.7
2017-Oct-13 19:31N 37°49' W 122°29'4 8.9
2017-Oct-13 19:00N 37°46' W 122°33'2 0.6
2017-Oct-13 15:53N 37°47' W 122°32'3 8.6
2017-Oct-13 15:30N 37°49' W 122°28'3 5.0
2017-Oct-13 14:57N 37°49' W 122°25'  
Track history (hours):
 
Tides and Currents Weather Stations Pressure Air Temp Water Temp Dewpoint Dewpoint Depression Visibility Wind Speed Wind Dir Waves Ship Positions

Happy Days

Owner: nazar, joe d, san francisco, CA. More information available from US FCC via Universal Licensing System and Coast Guard Vessel Documentation Center.

Last reported at 2017-Oct-23 01:40 UTC. Time now 2017-Oct-23 05:58 UTC.
Position N 37°49' W 122°25'.

Length 13 m.

Type: Fishing. MMSI: 366918840.

Date/timePositionNaut miles runAvg speedWind from/ knotsBaromVisibWave heightAir tempDewpointWater temp
2017-Oct-23 01:40N 37°49' W 122°25'0 0.0
2017-Oct-23 01:25N 37°49' W 122°25'0 0.3
2017-Oct-23 00:59N 37°49' W 122°24'0 1.0
2017-Oct-23 00:30N 37°48' W 122°25'1 2.8
2017-Oct-23 00:00N 37°50' W 122°26'2 3.6
2017-Oct-22 23:30N 37°49' W 122°28'2 2.9
2017-Oct-22 22:44N 37°48' W 122°25'0 0.0
2017-Oct-22 22:28N 37°48' W 122°25'2 4.0
2017-Oct-22 21:59N 37°49' W 122°27'2 1.3
2017-Oct-22 20:28N 37°48' W 122°25'3 5.4
2017-Oct-22 20:00N 37°49' W 122°28'3 2.9
2017-Oct-22 19:08N 37°48' W 122°25'0 0.0
2017-Oct-22 18:38N 37°48' W 122°25'0 0.0
2017-Oct-22 18:29N 37°48' W 122°25'0 0.0
2017-Oct-22 17:31N 37°48' W 122°25'0 0.6
2017-Oct-22 17:30N 37°49' W 122°25'0 0.7
2017-Oct-22 16:58N 37°49' W 122°25'0 0.0
2017-Oct-21 23:25N 37°49' W 122°25'0 0.7
2017-Oct-21 23:00N 37°49' W 122°25'0 0.6
2017-Oct-21 22:29N 37°49' W 122°25'0 0.3
2017-Oct-21 22:00N 37°49' W 122°24'510.2
2017-Oct-21 21:30N 37°48' W 122°31'3 2.6
2017-Oct-21 20:15N 37°47' W 122°35'2 8.3
2017-Oct-21 20:00N 37°48' W 122°32'4 8.4
2017-Oct-21 19:30N 37°49' W 122°27'2 4.0
2017-Oct-21 18:57N 37°49' W 122°25'2 4.0
2017-Oct-21 18:30N 37°49' W 122°27'6 3.3
2017-Oct-21 16:44N 37°47' W 122°34'315.1
2017-Oct-21 16:30N 37°49' W 122°30'4 8.4
2017-Oct-21 16:00N 37°49' W 122°25'0 0.0
2017-Oct-19 23:08N 37°49' W 122°25'0 0.0
2017-Oct-19 22:59N 37°49' W 122°25'0 0.0
2017-Oct-19 22:26N 37°49' W 122°25'0 0.0
2017-Oct-19 21:56N 37°49' W 122°25'0 0.0
2017-Oct-19 21:26N 37°49' W 122°25'0 0.0
2017-Oct-19 20:50N 37°49' W 122°25'0 0.0
2017-Oct-19 20:26N 37°49' W 122°25'0 0.0
2017-Oct-19 19:52N 37°49' W 122°25'3 7.1
2017-Oct-19 19:30N 37°49' W 122°28'3 1.0
2017-Oct-19 16:36N 37°49' W 122°31'111.2
2017-Oct-19 16:30N 37°49' W 122°30'1 2.9
2017-Oct-19 15:59N 37°49' W 122°28'1 2.6
2017-Oct-19 15:30N 37°49' W 122°26'2 0.1
2017-Oct-18 20:09N 37°49' W 122°25'0 0.0
2017-Oct-18 20:00N 37°49' W 122°25'5 1.2
2017-Oct-18 15:49N 37°49' W 122°31'3 9.2
2017-Oct-18 15:30N 37°49' W 122°27'2 0.1
2017-Oct-17 21:16N 37°49' W 122°24'0 0.1
2017-Oct-17 17:55N 37°48' W 122°25'0 0.3
2017-Oct-17 17:28N 37°49' W 122°25'1 1.1
2017-Oct-17 17:00N 37°49' W 122°25'  
2017-Oct-14 22:55N 37°49' W 122°24'511.5
2017-Oct-14 22:30N 37°49' W 122°30'6 3.7
2017-Oct-14 20:59N 37°48' W 122°38'5 9.6
2017-Oct-14 20:25N 37°49' W 122°31'512.1
2017-Oct-14 20:00N 37°49' W 122°24'4 7.8
2017-Oct-14 19:30N 37°49' W 122°29'5 1.7
2017-Oct-14 16:48N 37°47' W 122°35'415.0
2017-Oct-14 16:30N 37°49' W 122°30'4 0.2
2017-Oct-13 21:47N 37°49' W 122°25'0 0.0
2017-Oct-13 21:29N 37°49' W 122°25'0 0.0
2017-Oct-13 20:59N 37°49' W 122°25'0 0.0
2017-Oct-13 20:29N 37°49' W 122°25'0 0.0
2017-Oct-13 20:00N 37°49' W 122°25'3 6.7
2017-Oct-13 19:31N 37°49' W 122°29'4 8.9
2017-Oct-13 19:00N 37°46' W 122°33'2 0.6
2017-Oct-13 15:53N 37°47' W 122°32'3 8.6
2017-Oct-13 15:30N 37°49' W 122°28'3 5.0
2017-Oct-13 14:57N 37°49' W 122°25'  

Dump ship's entire track history